Time;durP1;ratioP1;P1;durP2;ratioP2;P2;SDS_P1;SDS_P2;PMS_P1;PMS_P2;Temp;Humidity;BMP_temperature;BMP_pressure;BME280_temperature;BME280_humidity;BME280_pressure;Samples;Min_cycle;Max_cycle;Signal;HPM_P1;HPM_P2
2023/03/17 00:00:36;;;;;;;;;15.00;15.00;;;;;-147.17;100.00;-9717.81;5032778;28;52631;-46
2023/03/17 00:03:04;;;;;;;;;13.75;13.75;;;;;-147.17;100.00;-10214.00;5026557;28;51178;-49
2023/03/17 00:05:32;;;;;;;;;13.00;11.50;;;;;-147.17;100.00;-10214.00;5030840;28;51121;-45
2023/03/17 00:08:28;;;;;;;;;16.75;15.50;;;;;-147.17;100.00;-10710.16;5006128;28;51221;-45
2023/03/17 00:10:54;;;;;;;;;14.00;14.00;;;;;-147.17;100.00;-10958.19;5019373;28;53486;-47
2023/03/17 00:13:20;;;;;;;;;15.00;14.25;;;;;-147.17;100.00;-10958.19;5028430;28;51274;-46
2023/03/17 00:15:51;;;;;;;;;14.00;14.00;;;;;-147.17;100.00;-10958.19;5023971;28;51178;-48
2023/03/17 00:18:18;;;;;;;;;12.50;12.00;;;;;-147.17;100.00;-11206.22;5030999;28;51386;-46
2023/03/17 00:20:45;;;;;;;;;15.00;15.00;;;;;-147.17;100.00;-11454.25;5030646;28;51772;-46
2023/03/17 00:23:18;;;;;;;;;15.75;13.75;;;;;-147.17;100.00;-11950.22;5030601;28;51215;-47
2023/03/17 00:25:45;;;;;;;;;16.25;15.25;;;;;-147.17;100.00;-12198.19;5028994;28;52143;-47
2023/03/17 00:28:31;;;;;;;;;14.25;14.25;;;;;-147.17;100.00;-12198.19;5027512;28;51152;-50
2023/03/17 00:31:05;;;;;;;;;15.25;14.75;;;;;-147.17;100.00;-12198.19;5025934;28;51924;-44
2023/03/17 00:33:33;;;;;;;;;17.25;15.00;;;;;-147.17;100.00;-12941.97;5030285;28;51144;-48
2023/03/17 00:36:00;;;;;;;;;18.50;16.75;;;;;-147.17;100.00;-12941.97;5027012;28;52027;-47
2023/03/17 00:38:25;;;;;;;;;16.50;16.00;;;;;-147.17;100.00;-12941.97;5009618;28;51222;-48
2023/03/17 00:40:50;;;;;;;;;14.00;14.00;;;;;-147.17;100.00;-13437.75;5027286;28;51814;-50
2023/03/17 00:43:17;;;;;;;;;16.50;16.25;;;;;-147.17;100.00;-13685.63;5028667;28;51098;-47
2023/03/17 00:45:43;;;;;;;;;18.50;18.00;;;;;-147.17;100.00;-13685.63;5012187;28;51052;-46
2023/03/17 00:48:23;;;;;;;;;17.00;17.00;;;;;-147.17;100.00;-13685.63;5025919;28;51366;-49
2023/03/17 00:50:49;;;;;;;;;17.50;16.50;;;;;-147.17;100.00;-13933.50;5012027;28;52934;-48
2023/03/17 00:53:16;;;;;;;;;15.25;15.00;;;;;-147.17;100.00;-14181.31;5025948;28;52203;-48
2023/03/17 00:55:43;;;;;;;;;15.75;15.25;;;;;-147.17;100.00;-14181.31;5028204;28;51323;-48
2023/03/17 00:58:17;;;;;;;;;16.25;15.25;;;;;-147.17;100.00;-14181.31;5033510;28;51397;-49
2023/03/17 01:00:42;;;;;;;;;18.75;17.25;;;;;-147.17;100.00;-14429.16;5027658;28;51726;-48
2023/03/17 01:03:11;;;;;;;;;17.75;17.75;;;;;-147.17;100.00;-14429.16;5028744;28;51613;-45
2023/03/17 01:05:37;;;;;;;;;17.00;17.00;;;;;-147.17;100.00;-14429.16;5018982;28;51099;-46
2023/03/17 01:08:03;;;;;;;;;15.50;14.25;;;;;-147.17;100.00;-14429.16;5033444;28;51347;-48
2023/03/17 01:10:28;;;;;;;;;17.00;16.50;;;;;-147.17;100.00;-14429.16;5028228;28;52872;-45
2023/03/17 01:12:59;;;;;;;;;16.25;16.25;;;;;-147.17;100.00;-14924.75;5028352;28;51274;-46
2023/03/17 01:15:29;;;;;;;;;15.50;14.75;;;;;-147.17;100.00;-14924.75;5032830;28;51193;-46
2023/03/17 01:17:56;;;;;;;;;20.00;17.50;;;;;-147.17;100.00;-14924.75;5011109;28;51428;-49
2023/03/17 01:20:27;;;;;;;;;18.00;18.00;;;;;-147.17;100.00;-15172.50;5029920;28;51949;-48
2023/03/17 01:22:53;;;;;;;;;19.25;17.25;;;;;-147.17;100.00;-15172.50;5030045;28;51214;-48
2023/03/17 01:25:19;;;;;;;;;21.25;19.00;;;;;-147.17;100.00;-15172.50;5029366;28;51363;-48
2023/03/17 01:27:45;;;;;;;;;22.00;19.50;;;;;-147.17;100.00;-15420.25;5030034;28;53240;-47
2023/03/17 01:30:26;;;;;;;;;17.50;17.25;;;;;-147.17;100.00;-15420.25;5028810;28;52142;-51
2023/03/17 01:32:52;;;;;;;;;21.75;16.50;;;;;-147.17;100.00;-15668.00;5025379;28;51264;-50
2023/03/17 01:35:18;;;;;;;;;20.00;18.75;;;;;-147.17;100.00;-15420.25;5011511;28;51476;-49
2023/03/17 01:37:45;;;;;;;;;17.75;16.25;;;;;-147.17;100.00;-15668.00;5025512;28;51014;-48
2023/03/17 01:40:16;;;;;;;;;20.75;18.75;;;;;-147.17;100.00;-15915.72;5028457;28;51436;-49
2023/03/17 01:42:43;;;;;;;;;17.00;16.50;;;;;-147.17;100.00;-15668.00;5028642;28;51176;-47
2023/03/17 01:45:47;;;;;;;;;22.50;22.00;;;;;-147.17;100.00;-15668.00;5026824;28;51199;-46
2023/03/17 01:48:14;;;;;;;;;21.75;20.25;;;;;-147.17;100.00;-15420.25;5025211;28;51407;-46
2023/03/17 01:50:40;;;;;;;;;15.00;14.00;;;;;-147.17;100.00;-15668.00;5032929;28;51188;-47
2023/03/17 01:53:06;;;;;;;;;16.75;15.75;;;;;-147.17;100.00;-15668.00;5025695;28;51106;-47
2023/03/17 01:55:31;;;;;;;;;21.25;17.00;;;;;-147.17;100.00;-15668.00;5032419;28;51347;-47
2023/03/17 01:57:57;;;;;;;;;20.75;16.50;;;;;-147.17;100.00;-15668.00;5030688;28;51473;-46
2023/03/17 02:00:23;;;;;;;;;19.00;16.75;;;;;-147.17;100.00;-15668.00;5039254;28;53156;-47
2023/03/17 02:02:51;;;;;;;;;18.00;18.00;;;;;-147.17;100.00;-15668.00;5030427;28;50966;-46
2023/03/17 02:05:26;;;;;;;;;17.50;17.50;;;;;-147.17;100.00;-15915.72;5028005;28;51176;-46
2023/03/17 02:07:55;;;;;;;;;16.00;16.00;;;;;-147.17;100.00;-15915.72;5032614;28;51407;-46
2023/03/17 02:10:24;;;;;;;;;14.25;14.25;;;;;-147.17;100.00;-15917.19;5011534;28;52164;-47
2023/03/17 02:12:57;;;;;;;;;16.50;15.50;;;;;-147.17;100.00;-15917.19;5030197;28;51190;-47
2023/03/17 02:15:23;;;;;;;;;17.50;17.00;;;;;-147.17;100.00;-15917.19;5031140;28;51120;-46
2023/03/17 02:17:48;;;;;;;;;16.50;15.00;;;;;-147.17;100.00;-15917.19;5032337;28;50937;-49
2023/03/17 02:20:17;;;;;;;;;19.00;18.25;;;;;-147.17;100.00;-15917.19;5031574;28;51894;-49
2023/03/17 02:22:53;;;;;;;;;15.50;13.50;;;;;-147.17;100.00;-15917.19;5029437;28;51191;-48
2023/03/17 02:25:20;;;;;;;;;14.25;14.25;;;;;-147.17;100.00;-15917.19;5029255;28;51248;-48
2023/03/17 02:27:50;;;;;;;;;17.50;16.25;;;;;-147.17;100.00;-15917.19;5027427;28;51317;-48
2023/03/17 02:30:22;;;;;;;;;16.75;15.50;;;;;-147.17;100.00;-15917.19;5032460;28;52301;-47
2023/03/17 02:32:47;;;;;;;;;16.25;15.25;;;;;-147.17;100.00;-15917.19;5032295;28;51141;-47
2023/03/17 02:35:14;;;;;;;;;13.75;13.25;;;;;-147.17;100.00;-15917.19;5033211;28;51403;-47
2023/03/17 02:37:42;;;;;;;;;11.75;11.75;;;;;-147.17;100.00;-15917.19;5032968;28;51219;-48
2023/03/17 02:40:10;;;;;;;;;15.50;15.25;;;;;-147.17;100.00;-15917.19;5014646;28;51889;-47
2023/03/17 02:42:35;;;;;;;;;19.50;17.25;;;;;-147.17;100.00;-15917.19;5018282;28;51138;-47
2023/03/17 02:45:01;;;;;;;;;17.75;14.75;;;;;-147.17;100.00;-15917.19;5033415;28;50996;-47
2023/03/17 02:47:27;;;;;;;;;14.75;14.75;;;;;-147.17;100.00;-15917.19;5032727;28;51107;-48
2023/03/17 02:49:53;;;;;;;;;16.75;15.50;;;;;-147.17;100.00;-15917.19;5031637;28;51022;-49
2023/03/17 02:52:18;;;;;;;;;14.00;13.00;;;;;-147.17;100.00;-15917.19;5032422;28;50992;-46
2023/03/17 02:54:44;;;;;;;;;13.00;13.00;;;;;-147.17;100.00;-15917.19;5033843;28;51047;-50
2023/03/17 02:57:09;;;;;;;;;14.00;14.00;;;;;-147.17;100.00;-15917.19;5032977;28;51205;-50
2023/03/17 02:59:36;;;;;;;;;15.00;14.50;;;;;-147.17;100.00;-15917.19;5014041;28;53269;-48
2023/03/17 03:02:01;;;;;;;;;13.75;13.00;;;;;-147.17;100.00;-15917.19;5031761;28;51168;-49
2023/03/17 03:04:27;;;;;;;;;15.75;13.75;;;;;-147.17;100.00;-15917.19;5031906;28;51027;-51
2023/03/17 03:06:52;;;;;;;;;14.25;14.25;;;;;-147.17;100.00;-15917.19;5022122;28;50960;-48
2023/03/17 03:09:18;;;;;;;;;12.25;12.25;;;;;-147.17;100.00;-15917.19;5032574;28;51671;-48
2023/03/17 03:11:44;;;;;;;;;13.25;12.00;;;;;-147.17;100.00;-15917.19;5032637;28;51395;-49
2023/03/17 03:14:12;;;;;;;;;13.75;12.75;;;;;-147.17;100.00;-15917.19;5031397;28;51370;-47
2023/03/17 03:16:38;;;;;;;;;13.00;12.25;;;;;-147.17;100.00;-15917.19;5035305;28;51199;-48
2023/03/17 03:19:04;;;;;;;;;15.50;15.50;;;;;-147.17;100.00;-15917.19;5029705;28;51108;-48
2023/03/17 03:21:30;;;;;;;;;15.00;14.75;;;;;-147.17;100.00;-15917.19;5031389;28;51125;-50
2023/03/17 03:23:55;;;;;;;;;9.50;9.50;;;;;-147.17;100.00;-15917.19;5031417;28;51320;-47
2023/03/17 03:26:21;;;;;;;;;13.00;13.00;;;;;-147.17;100.00;-15917.19;5028978;28;50968;-48
2023/03/17 03:28:46;;;;;;;;;10.75;10.50;;;;;-147.17;100.00;-15917.19;5030935;28;52297;-49
2023/03/17 03:31:12;;;;;;;;;14.50;13.00;;;;;-147.17;100.00;-15917.19;5028109;28;53336;-50
2023/03/17 03:33:39;;;;;;;;;13.75;13.00;;;;;-147.17;100.00;-15917.19;5013965;28;51100;-50
2023/03/17 03:36:05;;;;;;;;;13.25;13.00;;;;;-147.17;100.00;-15917.19;5015532;28;51262;-48
2023/03/17 03:38:30;;;;;;;;;13.00;11.75;;;;;-147.17;100.00;-15917.19;5029154;28;52328;-49
2023/03/17 03:40:56;;;;;;;;;11.00;10.50;;;;;-147.17;100.00;-15917.19;5034900;28;51014;-49
2023/03/17 03:43:21;;;;;;;;;13.00;13.00;;;;;-147.17;100.00;-15917.19;5013289;28;51110;-50
2023/03/17 03:45:47;;;;;;;;;12.00;12.00;;;;;-147.17;100.00;-15917.19;5032567;28;50900;-48
2023/03/17 03:48:12;;;;;;;;;15.25;13.00;;;;;-147.17;100.00;-15917.19;5012123;28;52705;-50
2023/03/17 03:50:38;;;;;;;;;15.25;14.00;;;;;-147.17;100.00;-15917.19;5032137;28;50928;-48
2023/03/17 03:53:03;;;;;;;;;12.75;12.00;;;;;-147.17;100.00;-15917.19;5030877;28;51105;-49
2023/03/17 03:55:29;;;;;;;;;11.00;10.50;;;;;-147.17;100.00;-15917.19;5030424;28;51290;-47
2023/03/17 03:57:54;;;;;;;;;12.50;10.75;;;;;-147.17;100.00;-15917.19;5031440;28;52514;-49
2023/03/17 04:00:20;;;;;;;;;11.00;11.00;;;;;-147.17;100.00;-15917.19;5036028;28;51196;-49
2023/03/17 04:02:46;;;;;;;;;12.25;12.00;;;;;-147.17;100.00;-15917.19;5032160;28;51394;-46
2023/03/17 04:05:14;;;;;;;;;12.50;11.75;;;;;-147.17;100.00;-15917.19;5031060;28;51000;-46
2023/03/17 04:07:40;;;;;;;;;10.25;9.50;;;;;-147.17;100.00;-15917.19;5032352;28;51272;-46
2023/03/17 04:10:07;;;;;;;;;13.50;12.25;;;;;-147.17;100.00;-15917.19;5030892;28;51044;-47
2023/03/17 04:12:33;;;;;;;;;15.25;14.00;;;;;-147.17;100.00;-15917.19;5031594;28;51086;-48
2023/03/17 04:14:58;;;;;;;;;12.75;12.50;;;;;-147.17;100.00;-15917.19;5033303;28;51291;-46
2023/03/17 04:17:23;;;;;;;;;12.00;12.00;;;;;-147.17;100.00;-15917.19;5030372;28;51987;-46
2023/03/17 04:19:50;;;;;;;;;13.25;12.00;;;;;-147.17;100.00;-15917.19;5031606;28;50907;-47
2023/03/17 04:22:15;;;;;;;;;15.75;15.50;;;;;-147.17;100.00;-15917.19;5031988;28;51051;-47
2023/03/17 04:24:40;;;;;;;;;15.75;12.50;;;;;-147.17;100.00;-15917.19;5032644;28;51117;-48
2023/03/17 04:27:06;;;;;;;;;11.50;11.25;;;;;-147.17;100.00;-15917.19;5026893;28;51941;-47
2023/03/17 04:29:32;;;;;;;;;13.00;12.00;;;;;-147.17;100.00;-15917.19;5031785;28;51219;-48
2023/03/17 04:31:58;;;;;;;;;12.00;12.00;;;;;-147.17;100.00;-15917.19;5013102;28;51133;-47
2023/03/17 04:34:23;;;;;;;;;13.00;12.00;;;;;-147.17;100.00;-15917.19;5031443;28;51220;-46
2023/03/17 04:36:48;;;;;;;;;14.00;13.50;;;;;-147.17;100.00;-15917.19;5032230;28;53056;-49
2023/03/17 04:39:15;;;;;;;;;13.25;12.50;;;;;-147.17;100.00;-15917.19;5029968;28;51208;-45
2023/03/17 04:41:40;;;;;;;;;11.75;11.75;;;;;-147.17;100.00;-15917.19;5031078;28;51172;-47
2023/03/17 04:44:06;;;;;;;;;7.75;7.75;;;;;-147.17;100.00;-15917.19;5031815;28;50942;-48
2023/03/17 04:46:33;;;;;;;;;10.50;9.00;;;;;-147.17;100.00;-15917.19;5029188;28;51811;-50
2023/03/17 04:48:59;;;;;;;;;12.00;11.25;;;;;-147.17;100.00;-15917.19;5022902;28;50983;-49
2023/03/17 04:51:24;;;;;;;;;11.75;11.00;;;;;-147.17;100.00;-15917.19;5028972;28;51167;-50
2023/03/17 04:53:50;;;;;;;;;9.50;8.50;;;;;-147.17;100.00;-15917.19;5030539;28;51265;-49
2023/03/17 04:56:15;;;;;;;;;9.00;9.00;;;;;-147.17;100.00;-15917.19;5031619;28;51961;-49
2023/03/17 04:58:41;;;;;;;;;7.75;6.75;;;;;-147.17;100.00;-15917.19;5029919;28;51227;-49
2023/03/17 05:01:07;;;;;;;;;10.00;10.00;;;;;-147.17;100.00;-15917.19;5027755;28;52743;-48
2023/03/17 05:03:33;;;;;;;;;12.75;11.75;;;;;-147.17;100.00;-15917.19;5028582;28;51566;-48
2023/03/17 05:06:01;;;;;;;;;12.50;11.75;;;;;-147.17;100.00;-15917.19;5031447;28;51776;-49
2023/03/17 05:08:29;;;;;;;;;9.00;9.00;;;;;-147.17;100.00;-15917.19;5026014;28;50952;-50
2023/03/17 05:10:56;;;;;;;;;9.50;9.50;;;;;-147.17;100.00;-15917.19;5027119;28;51144;-50
2023/03/17 05:13:22;;;;;;;;;4.00;3.75;;;;;-147.17;100.00;-15917.19;5014666;28;51155;-49
2023/03/17 05:15:50;;;;;;;;;11.75;11.00;;;;;-147.17;100.00;-15917.19;5041604;28;52067;-46
2023/03/17 05:18:16;;;;;;;;;11.00;10.50;;;;;-147.17;100.00;-15917.19;5011834;28;51697;-48
2023/03/17 05:20:41;;;;;;;;;12.50;12.50;;;;;-147.17;100.00;-15917.19;5031054;28;52734;-48
2023/03/17 05:23:07;;;;;;;;;11.00;10.25;;;;;-147.17;100.00;-15917.19;5029566;28;51168;-46
2023/03/17 05:25:32;;;;;;;;;10.75;10.25;;;;;-147.17;100.00;-15917.19;5029058;28;52214;-48
2023/03/17 05:27:58;;;;;;;;;13.25;11.50;;;;;-147.17;100.00;-15917.19;5011895;28;51070;-49
2023/03/17 05:30:24;;;;;;;;;12.50;11.00;;;;;-147.17;100.00;-15917.19;5018969;28;51644;-47
2023/03/17 05:32:50;;;;;;;;;10.75;10.00;;;;;-147.17;100.00;-15917.19;5011831;28;51271;-48
2023/03/17 05:35:16;;;;;;;;;9.75;8.50;;;;;-147.17;100.00;-15917.19;5030868;28;51081;-50
2023/03/17 05:37:42;;;;;;;;;9.50;9.50;;;;;-147.17;100.00;-15917.19;5029345;28;51249;-48
2023/03/17 05:40:09;;;;;;;;;11.25;11.25;;;;;-147.17;100.00;-15917.19;5030306;28;50994;-47
2023/03/17 05:42:34;;;;;;;;;10.25;9.25;;;;;-147.17;100.00;-15917.19;5012915;28;51027;-48
2023/03/17 05:45:00;;;;;;;;;10.75;10.75;;;;;-147.17;100.00;-15917.19;5008728;28;52339;-47
2023/03/17 05:47:25;;;;;;;;;12.50;11.00;;;;;-147.17;100.00;-15917.19;5022783;28;51157;-46
2023/03/17 05:49:51;;;;;;;;;9.75;8.50;;;;;-147.17;100.00;-15917.19;5025936;28;51555;-45
2023/03/17 05:52:17;;;;;;;;;12.00;11.50;;;;;-147.17;100.00;-15917.19;5036824;28;51665;-50
2023/03/17 05:54:43;;;;;;;;;9.00;8.75;;;;;-147.17;100.00;-15917.19;5033549;28;51251;-45
2023/03/17 05:57:09;;;;;;;;;10.50;8.75;;;;;-147.17;100.00;-15917.19;5032048;28;51312;-47
2023/03/17 05:59:35;;;;;;;;;7.00;6.75;;;;;-147.17;100.00;-15917.19;5016411;28;51263;-46
2023/03/17 06:02:00;;;;;;;;;10.25;9.25;;;;;-147.17;100.00;-15917.19;5033660;28;51201;-46
2023/03/17 06:04:25;;;;;;;;;9.25;9.25;;;;;-147.17;100.00;-15917.19;5034442;28;52197;-47
2023/03/17 06:06:51;;;;;;;;;10.50;10.00;;;;;-147.17;100.00;-15917.19;5033983;28;50990;-47
2023/03/17 06:09:16;;;;;;;;;9.00;9.00;;;;;-147.17;100.00;-15917.19;5035051;28;51067;-48
2023/03/17 06:11:42;;;;;;;;;11.00;10.75;;;;;-147.17;100.00;-15917.19;5034763;28;51419;-48
2023/03/17 06:14:08;;;;;;;;;9.50;9.50;;;;;-147.17;100.00;-15917.19;5034294;28;51813;-47
2023/03/17 06:16:33;;;;;;;;;11.00;10.00;;;;;-147.17;100.00;-15917.19;5033971;28;51161;-47
2023/03/17 06:18:58;;;;;;;;;11.00;11.00;;;;;-147.17;100.00;-15917.19;5034664;28;51073;-48
2023/03/17 06:21:24;;;;;;;;;11.75;11.00;;;;;-147.17;100.00;-15917.19;5032971;28;51497;-48
2023/03/17 06:23:50;;;;;;;;;10.75;10.25;;;;;-147.17;100.00;-15917.19;5031939;28;51174;-49
2023/03/17 06:26:15;;;;;;;;;11.75;10.00;;;;;-147.17;100.00;-15917.19;5025659;28;51439;-47
2023/03/17 06:28:41;;;;;;;;;11.25;10.75;;;;;-147.17;100.00;-15917.19;5010872;28;51126;-49
2023/03/17 06:31:07;;;;;;;;;10.50;9.25;;;;;-147.17;100.00;-15917.19;5032478;28;50951;-47
2023/03/17 06:33:33;;;;;;;;;8.75;8.25;;;;;-147.17;100.00;-15917.19;5032094;28;51784;-46
2023/03/17 06:35:59;;;;;;;;;10.00;9.25;;;;;-147.17;100.00;-15917.19;5031724;28;51293;-47
2023/03/17 06:38:24;;;;;;;;;10.75;10.75;;;;;-147.17;100.00;-15917.19;5033176;28;51257;-47
2023/03/17 06:40:50;;;;;;;;;10.75;10.25;;;;;-147.17;100.00;-15917.19;5033012;28;51313;-47
2023/03/17 06:43:18;;;;;;;;;14.75;13.25;;;;;-147.17;100.00;-15917.19;5029989;28;52654;-48
2023/03/17 06:45:44;;;;;;;;;11.00;10.50;;;;;-147.17;100.00;-15917.19;5032316;28;51192;-47
2023/03/17 06:48:09;;;;;;;;;11.00;10.50;;;;;-147.17;100.00;-15917.19;5031295;28;51260;-47
2023/03/17 06:50:35;;;;;;;;;6.00;5.75;;;;;-147.17;100.00;-15917.19;5030918;28;51303;-50
2023/03/17 06:53:00;;;;;;;;;10.25;10.25;;;;;-147.17;100.00;-15917.19;5032838;28;51628;-46
2023/03/17 06:55:26;;;;;;;;;10.75;10.75;;;;;-147.17;100.00;-15917.19;5014886;28;51154;-46
2023/03/17 06:57:51;;;;;;;;;10.25;10.25;;;;;-147.17;100.00;-15917.19;5036242;28;50948;-48
2023/03/17 07:00:18;;;;;;;;;13.00;13.00;;;;;-147.17;100.00;-15917.19;5032144;28;51307;-48
2023/03/17 07:02:43;;;;;;;;;10.25;9.75;;;;;-147.17;100.00;-15917.19;5027625;28;51269;-47
2023/03/17 07:05:09;;;;;;;;;10.50;10.25;;;;;-147.17;100.00;-15917.19;5029321;28;51459;-49
2023/03/17 07:07:34;;;;;;;;;12.50;11.75;;;;;-147.17;100.00;-15917.19;5037555;28;51195;-47
2023/03/17 07:09:59;;;;;;;;;11.75;11.75;;;;;-147.17;100.00;-15917.19;5029596;28;51296;-45
2023/03/17 07:12:26;;;;;;;;;12.25;12.00;;;;;-147.17;100.00;-15917.19;5033002;28;51859;-49
2023/03/17 07:14:52;;;;;;;;;10.75;8.00;;;;;-147.17;100.00;-15917.19;5024203;28;51082;-45
2023/03/17 07:17:18;;;;;;;;;11.25;10.50;;;;;-147.17;100.00;-15917.19;5031508;28;51133;-47
2023/03/17 07:19:44;;;;;;;;;11.00;10.25;;;;;-147.17;100.00;-15917.19;5025296;28;51236;-47
2023/03/17 07:22:11;;;;;;;;;10.00;10.00;;;;;-147.17;100.00;-15917.19;5014974;28;51697;-49
2023/03/17 07:24:36;;;;;;;;;11.25;10.50;;;;;-147.17;100.00;-15917.19;5030043;28;51266;-45
2023/03/17 07:27:02;;;;;;;;;8.75;8.75;;;;;-147.17;100.00;-15917.19;5032711;28;51010;-48
2023/03/17 07:29:28;;;;;;;;;10.00;8.25;;;;;-147.17;100.00;-15917.19;5015431;28;51229;-46
2023/03/17 07:31:53;;;;;;;;;10.50;9.50;;;;;-147.17;100.00;-15917.19;5006327;28;52288;-49
2023/03/17 07:34:19;;;;;;;;;11.25;11.00;;;;;-147.17;100.00;-15917.19;5032257;28;50948;-46
2023/03/17 07:36:45;;;;;;;;;12.00;12.00;;;;;-147.17;100.00;-15917.19;5014592;28;51170;-46
2023/03/17 07:39:11;;;;;;;;;12.00;11.00;;;;;-147.17;100.00;-15917.19;5033245;28;51159;-47
2023/03/17 07:41:37;;;;;;;;;12.00;10.25;;;;;-147.17;100.00;-15917.19;5010303;28;52689;-48
2023/03/17 07:44:02;;;;;;;;;10.50;10.00;;;;;-147.17;100.00;-15917.19;5025306;28;51156;-47
2023/03/17 07:46:28;;;;;;;;;13.00;12.25;;;;;-147.17;100.00;-15917.19;5032631;28;51205;-47
2023/03/17 07:48:54;;;;;;;;;10.00;9.50;;;;;-147.17;100.00;-15917.19;5014957;28;51059;-48
2023/03/17 07:51:22;;;;;;;;;10.75;9.00;;;;;-147.17;100.00;-15917.19;5035245;28;52668;-48
2023/03/17 07:53:49;;;;;;;;;12.75;11.00;;;;;-147.17;100.00;-15917.19;5032536;28;51059;-49
2023/03/17 07:56:16;;;;;;;;;9.75;8.00;;;;;-147.17;100.00;-15917.19;5032066;28;50964;-49
2023/03/17 07:58:42;;;;;;;;;10.25;10.00;;;;;-147.17;100.00;-15915.72;5032841;28;51051;-47
2023/03/17 08:01:08;;;;;;;;;9.25;8.25;;;;;-147.17;100.00;-15915.72;5033724;28;51188;-47
2023/03/17 08:03:35;;;;;;;;;7.00;7.00;;;;;-147.17;100.00;-15668.00;5033388;28;51028;-49
2023/03/17 08:06:01;;;;;;;;;11.25;10.00;;;;;-147.17;100.00;-15172.50;5032502;28;51121;-48
2023/03/17 08:08:27;;;;;;;;;11.25;10.25;;;;;-147.17;100.00;-15172.50;5032389;28;50915;-46
2023/03/17 08:11:01;;;;;;;;;11.75;9.00;;;;;-147.17;100.00;-15172.50;5041940;28;51948;-47
2023/03/17 08:13:26;;;;;;;;;10.75;9.00;;;;;-147.17;100.00;-14676.94;5031293;28;50884;-52
2023/03/17 08:15:52;;;;;;;;;9.75;9.75;;;;;-147.17;100.00;-14676.94;5032464;28;50945;-48
2023/03/17 08:18:17;;;;;;;;;15.00;13.75;;;;;-147.17;100.00;-14429.16;5032490;28;51245;-45
2023/03/17 08:20:43;;;;;;;;;10.50;10.25;;;;;-147.17;100.00;-14181.31;5029499;28;51421;-49
2023/03/17 08:23:09;;;;;;;;;9.50;7.75;;;;;-147.17;100.00;-13933.50;5031284;28;51200;-47
2023/03/17 08:25:34;;;;;;;;;8.25;7.25;;;;;-147.17;100.00;-13685.63;5030446;28;51256;-47
2023/03/17 08:28:00;;;;;;;;;9.25;9.00;;;;;-147.17;100.00;-13189.88;5029378;28;52063;-47
2023/03/17 08:30:26;;;;;;;;;10.00;9.00;;;;;-147.17;100.00;-12941.97;5032145;28;52603;-48
2023/03/17 08:32:52;;;;;;;;;11.25;11.25;;;;;-147.17;100.00;-12198.19;5032271;28;51038;-46
2023/03/17 08:35:18;;;;;;;;;8.25;8.00;;;;;-147.17;100.00;-11454.25;5014070;28;51319;-48
2023/03/17 08:37:47;;;;;;;;;10.50;10.00;;;;;-147.17;100.00;-10710.16;5031443;28;51118;-50
2023/03/17 08:40:18;;;;;;;;;10.00;9.25;;;;;-147.17;100.00;-9469.69;5033401;28;51044;-46
2023/03/17 08:42:46;;;;;;;;;11.00;10.00;;;;;-147.17;100.00;-9221.53;4993772;28;51100;-48
2023/03/17 08:45:12;;;;;;;;;11.50;10.25;;;;;-147.17;100.00;-7484.09;5013308;28;50984;-47
2023/03/17 08:47:39;;;;;;;;;9.33;9.00;;;;;-147.17;100.00;-6987.56;5013853;28;51039;-47
2023/03/17 08:50:11;;;;;;;;;10.25;9.00;;;;;-147.17;100.00;-5994.25;5031448;28;52191;-47
2023/03/17 08:52:36;;;;;;;;;10.25;10.25;;;;;-147.17;100.00;-5000.69;5014736;28;51000;-47
2023/03/17 08:55:02;;;;;;;;;7.00;7.00;;;;;-147.17;100.00;-3509.84;5032199;28;51039;-47
2023/03/17 08:57:28;;;;;;;;;10.00;8.67;;;;;-147.17;100.00;-1023.88;5013280;28;51216;-47
2023/03/17 08:59:53;;;;;;;;;7.50;7.50;;;;;-147.17;100.00;966.09;5031054;28;51683;-50
2023/03/17 09:02:20;;;;;;;;;9.00;8.33;;;;;-147.17;100.00;1214.91;5031924;28;50983;-46
2023/03/17 09:04:45;;;;;;;;;10.00;9.33;;;;;-147.17;100.00;2210.31;5031589;28;51024;-49
2023/03/17 09:07:11;;;;;;;;;10.33;8.33;;;;;-147.17;100.00;2957.06;5031020;28;50974;-49
2023/03/17 09:09:38;;;;;;;;;11.75;11.50;;;;;-147.17;100.00;6194.59;5033028;28;52293;-48
2023/03/17 09:12:05;;;;;;;;;8.67;7.67;;;;;-147.17;100.00;8936.16;5031522;28;51116;-49
2023/03/17 09:14:31;;;;;;;;;9.67;8.67;;;;;-147.17;100.00;10931.25;5031590;28;50984;-47
2023/03/17 09:16:57;;;;;;;;;8.00;8.00;;;;;-147.17;100.00;10681.81;5030988;28;51126;-47
2023/03/17 09:19:23;;;;;;;;;10.50;9.75;;;;;-147.17;100.00;14175.44;5029370;28;53063;-50
2023/03/17 09:21:49;;;;;;;;;10.00;9.00;;;;;-147.17;100.00;16173.25;5031707;28;50987;-48
2023/03/17 09:24:15;;;;;;;;;7.00;6.00;;;;;-147.17;100.00;18421.97;5031523;28;51118;-47
2023/03/17 09:26:40;;;;;;;;;8.33;7.33;;;;;-147.17;100.00;18921.88;5016020;28;51117;-50
2023/03/17 09:29:06;;;;;;;;;8.00;8.00;;;;;-147.17;100.00;20672.00;5034528;28;52339;-48
2023/03/17 09:31:34;;;;;;;;;9.00;9.00;;;;;-147.17;100.00;22356.47;5034687;28;50959;-47
2023/03/17 09:34:00;;;;;;;;;7.00;7.00;;;;;-147.17;100.00;23857.88;5033667;28;51153;-48
2023/03/17 09:36:25;;;;;;;;;9.00;8.00;;;;;-147.17;100.00;26091.50;5029319;28;51132;-49
2023/03/17 09:38:51;;;;;;;;;7.00;6.33;;;;;-147.17;100.00;25958.47;5034195;28;51833;-47
2023/03/17 09:41:37;;;;;;;;;5.00;5.00;;;;;-147.17;100.00;25528.09;5029046;28;51013;-48
2023/03/17 09:44:24;;;;;;;;;7.00;6.33;;;;;-147.17;100.00;28220.69;5016490;28;50865;-51
2023/03/17 09:47:12;;;;;;;;;6.33;5.67;;;;;-147.17;100.00;27962.31;5033519;28;51497;-48
2023/03/17 09:49:47;;;;;;;;;8.00;7.00;;;;;-147.17;100.00;26739.13;5034235;28;51160;-47
2023/03/17 09:52:17;;;;;;;;;5.00;4.00;;;;;-147.17;100.00;26071.94;5033390;28;51050;-52
2023/03/17 09:54:45;;;;;;;;;4.00;4.00;;;;;-147.17;100.00;26885.88;5021200;28;50855;-52
2023/03/17 09:57:15;;;;;;;;;6.67;5.00;;;;;-147.17;100.00;28882.38;5034084;28;51326;-51
2023/03/17 09:59:45;;;;;;;;;4.33;4.33;;;;;-147.17;100.00;30460.72;5016233;28;52089;-48
2023/03/17 10:02:32;;;;;;;;;4.67;4.00;;;;;-147.17;100.00;33413.47;5017395;28;51237;-48
2023/03/17 10:05:06;;;;;;;;;4.00;4.00;;;;;-147.17;100.00;34995.59;5026711;28;51257;-46
2023/03/17 10:07:45;;;;;;;;;6.00;6.00;;;;;-147.17;100.00;35740.81;5037560;28;51018;-48
2023/03/17 10:10:24;;;;;;;;;6.00;6.00;;;;;-147.17;100.00;36619.56;5033806;28;51917;-50
2023/03/17 10:13:08;;;;;;;;;4.00;4.00;;;;;-147.17;100.00;37045.28;5033288;28;50993;-46
2023/03/17 10:15:45;;;;;;;;;2.00;1.67;;;;;-147.17;100.00;37902.72;5033952;28;51185;-47
2023/03/17 10:18:13;;;;;;;;;9.00;8.00;;;;;-147.17;100.00;38601.38;5016393;28;51143;-52
2023/03/17 10:21:01;;;;;;;;;4.67;4.00;;;;;-147.17;100.00;38780.00;5033754;28;52471;-50
2023/03/17 10:23:30;;;;;;;;;5.67;4.00;;;;;-147.17;100.00;38809.44;5021488;28;50970;-49
2023/03/17 10:26:04;;;;;;;;;4.00;4.00;;;;;-147.17;100.00;38901.69;5033946;28;51021;-48
2023/03/17 10:28:35;;;;;;;;;5.00;4.00;;;;;-147.17;100.00;39610.34;5014433;28;51180;-47
2023/03/17 10:31:14;;;;;;;;;4.00;4.00;;;;;-147.17;100.00;40054.03;5033144;28;51928;-48
2023/03/17 10:33:39;;;;;;;;;3.67;3.67;;;;;-147.17;100.00;40305.38;5032600;28;54017;-47
2023/03/17 10:36:09;;;;;;;;;5.67;5.00;;;;;-147.17;100.00;40658.81;5032913;28;51284;-48
2023/03/17 10:38:35;;;;;;;;;7.00;7.00;;;;;-147.17;100.00;40662.75;5033534;28;50996;-48
2023/03/17 10:41:12;;;;;;;;;4.00;4.00;;;;;-147.17;100.00;40654.91;5013601;28;52151;-47
2023/03/17 10:43:44;;;;;;;;;3.00;3.00;;;;;-147.17;100.00;40541.00;5015241;28;51102;-50
2023/03/17 10:46:37;;;;;;;;;6.33;5.67;;;;;-147.17;100.00;40827.72;5033272;28;51122;-48
2023/03/17 10:49:09;;;;;;;;;5.00;5.00;;;;;-147.17;100.00;40592.06;5029568;28;51378;-47
2023/03/17 10:51:37;;;;;;;;;3.67;3.00;;;;;-147.17;100.00;40525.28;5032519;28;51982;-48
2023/03/17 10:54:16;;;;;;;;;4.33;4.33;;;;;-147.17;100.00;40299.47;5040429;28;51042;-46